createdAt,value
2023-02-18T00:00:08.451Z,78.69
2023-02-18T00:01:09.368Z,78.80
2023-02-18T00:02:10.312Z,78.80
2023-02-18T00:03:11.216Z,78.69
2023-02-18T00:04:12.061Z,78.63
2023-02-18T00:05:12.958Z,78.52
2023-02-18T00:06:13.860Z,78.83
2023-02-18T00:07:14.748Z,79.25
2023-02-18T00:08:15.680Z,79.45
2023-02-18T00:09:16.581Z,79.66
2023-02-18T00:10:17.485Z,79.55
2023-02-18T00:11:18.392Z,79.76
2023-02-18T00:12:19.271Z,79.45
2023-02-18T00:13:20.154Z,78.83
2023-02-18T00:14:21.060Z,79.04
2023-02-18T00:15:21.959Z,79.35
2023-02-18T00:16:22.894Z,79.55
2023-02-18T00:17:23.795Z,79.35
2023-02-18T00:18:24.711Z,78.83
2023-02-18T00:19:25.598Z,78.83
2023-02-18T00:20:26.523Z,78.97
2023-02-18T00:21:27.477Z,79.18
2023-02-18T00:22:28.366Z,79.18
2023-02-18T00:23:29.265Z,79.08
2023-02-18T00:24:30.170Z,79.38
2023-02-18T00:25:31.122Z,79.49
2023-02-18T00:26:32.030Z,79.59
2023-02-18T00:27:32.901Z,79.69
2023-02-18T00:28:33.825Z,79.80
2023-02-18T00:29:34.678Z,79.69
2023-02-18T00:30:35.617Z,79.83
2023-02-18T00:31:36.707Z,79.94
2023-02-18T00:32:37.096Z,80.15
2023-02-18T00:33:38.031Z,80.56
2023-02-18T00:34:38.893Z,80.35
2023-02-18T00:35:39.817Z,80.46
2023-02-18T00:36:40.692Z,80.46
2023-02-18T00:37:41.577Z,80.35
2023-02-18T00:38:42.472Z,80.35
2023-02-18T00:39:43.354Z,80.56
2023-02-18T00:40:44.255Z,80.97
2023-02-18T00:41:45.144Z,80.97
2023-02-18T00:42:46.027Z,81.07
2023-02-18T00:43:46.910Z,80.56
2023-02-18T00:44:47.820Z,80.46
2023-02-18T00:45:48.692Z,80.66
2023-02-18T00:46:49.684Z,80.66
2023-02-18T00:47:50.078Z,80.76
2023-02-18T00:48:50.970Z,80.76
2023-02-18T00:49:51.858Z,80.87
2023-02-18T00:50:52.741Z,80.97
2023-02-18T00:51:53.652Z,81.32
2023-02-18T00:52:54.540Z,81.11
2023-02-18T00:53:55.418Z,81.01
2023-02-18T00:54:56.326Z,81.11
2023-02-18T00:55:57.331Z,81.42
2023-02-18T00:56:58.217Z,81.21
2023-02-18T00:57:59.140Z,81.52
2023-02-18T00:59:00.020Z,81.63
2023-02-18T01:00:00.959Z,81.63
2023-02-18T01:01:01.849Z,81.49
2023-02-18T01:02:02.743Z,81.59
2023-02-18T01:03:03.652Z,81.42
2023-02-18T01:04:04.574Z,81.42
2023-02-18T01:05:05.546Z,81.32
2023-02-18T01:06:06.683Z,81.32
2023-02-18T01:07:07.158Z,81.21
2023-02-18T01:08:08.037Z,81.42
2023-02-18T01:09:08.929Z,81.52
2023-02-18T01:10:09.845Z,81.73
2023-02-18T01:11:10.746Z,81.80
2023-02-18T01:12:11.640Z,81.38
2023-02-18T01:13:12.556Z,81.18
2023-02-18T01:14:13.468Z,81.28
2023-02-18T01:15:14.376Z,81.42
2023-02-18T01:16:15.375Z,81.49
2023-02-18T01:17:16.298Z,81.32
2023-02-18T01:18:17.193Z,81.49
2023-02-18T01:19:18.050Z,81.49
2023-02-18T01:20:18.994Z,81.42
2023-02-18T01:21:19.885Z,81.21
2023-02-18T01:22:20.815Z,81.01
2023-02-18T01:23:21.698Z,81.11
2023-02-18T01:24:22.606Z,80.80
2023-02-18T01:25:23.469Z,80.80
2023-02-18T01:26:24.386Z,80.70
2023-02-18T01:27:25.287Z,80.60
2023-02-18T01:28:26.186Z,80.60
2023-02-18T01:29:27.073Z,80.60
2023-02-18T01:30:28.066Z,80.49
2023-02-18T01:31:29.019Z,80.49
2023-02-18T01:32:29.914Z,80.70
2023-02-18T01:33:30.801Z,80.80
2023-02-18T01:34:31.722Z,81.11
2023-02-18T01:35:32.623Z,81.32
2023-02-18T01:36:33.509Z,81.15
2023-02-18T01:37:34.424Z,81.05
2023-02-18T01:38:35.365Z,81.05
2023-02-18T01:39:36.241Z,80.84
2023-02-18T01:40:37.128Z,81.15
2023-02-18T01:41:38.024Z,81.35
2023-02-18T01:42:38.907Z,81.56
2023-02-18T01:43:39.784Z,81.67
2023-02-18T01:44:40.671Z,81.46
2023-02-18T01:45:41.554Z,81.46
2023-02-18T01:46:42.471Z,81.35
2023-02-18T01:47:43.318Z,81.25
2023-02-18T01:48:44.220Z,81.15
2023-02-18T01:49:45.084Z,80.88
2023-02-18T01:50:45.957Z,80.98
2023-02-18T01:51:46.830Z,82.32
2023-02-18T01:52:47.728Z,82.64
2023-02-18T01:53:48.608Z,82.95
2023-02-18T01:54:49.493Z,82.53
2023-02-18T01:55:50.381Z,82.22
2023-02-18T01:56:51.285Z,81.81
2023-02-18T01:57:52.132Z,81.81
2023-02-18T01:58:53.017Z,81.74
2023-02-18T01:59:53.899Z,81.95
2023-02-18T02:00:54.853Z,81.84
2023-02-18T02:01:55.802Z,81.54
2023-02-18T02:02:56.658Z,81.54
2023-02-18T02:03:57.536Z,82.15
2023-02-18T02:04:58.429Z,82.36
2023-02-18T02:05:59.295Z,82.05
2023-02-18T02:07:00.184Z,81.95
2023-02-18T02:08:01.069Z,81.95
2023-02-18T02:09:01.990Z,81.84
2023-02-18T02:10:02.827Z,81.88
2023-02-18T02:11:03.705Z,82.40
2023-02-18T02:12:04.614Z,82.81
2023-02-18T02:13:05.492Z,82.71
2023-02-18T02:14:06.364Z,82.50
2023-02-18T02:15:07.242Z,82.29
2023-02-18T02:16:08.482Z,82.40
2023-02-18T02:17:09.016Z,82.71
2023-02-18T02:18:09.906Z,82.92
2023-02-18T02:19:10.802Z,82.86
2023-02-18T02:20:11.673Z,82.65
2023-02-18T02:21:12.561Z,82.54
2023-02-18T02:22:13.440Z,82.65
2023-02-18T02:23:14.337Z,82.75
2023-02-18T02:24:15.216Z,82.65
2023-02-18T02:25:16.099Z,82.44
2023-02-18T02:26:16.971Z,82.86
2023-02-18T02:27:17.880Z,83.16
2023-02-18T02:28:18.751Z,83.41
2023-02-18T02:29:19.629Z,83.51
2023-02-18T02:30:20.581Z,83.41
2023-02-18T02:31:21.490Z,83.10
2023-02-18T02:32:22.347Z,83.31
2023-02-18T02:33:23.227Z,83.72
2023-02-18T02:34:24.108Z,84.03
2023-02-18T02:35:24.984Z,84.23
2023-02-18T02:36:25.873Z,84.13
2023-02-18T02:37:26.771Z,84.03
2023-02-18T02:38:27.642Z,83.72
2023-02-18T02:39:28.515Z,83.83
2023-02-18T02:40:29.398Z,83.72
2023-02-18T02:41:30.272Z,83.65
2023-02-18T02:42:31.179Z,83.65
2023-02-18T02:43:32.046Z,83.76
2023-02-18T02:44:32.937Z,83.86
2023-02-18T02:45:33.844Z,83.76
2023-02-18T02:46:34.705Z,83.76
2023-02-18T02:47:35.586Z,83.86
2023-02-18T02:48:36.488Z,83.86
2023-02-18T02:49:37.360Z,83.86
2023-02-18T02:50:38.241Z,83.97
2023-02-18T02:51:39.173Z,84.00
2023-02-18T02:52:40.038Z,83.86
2023-02-18T02:53:40.940Z,83.59
2023-02-18T02:54:41.862Z,83.48
2023-02-18T02:55:42.707Z,83.48
2023-02-18T02:56:43.603Z,83.48
2023-02-18T02:57:44.525Z,83.38
2023-02-18T02:58:45.376Z,83.48
2023-02-18T02:59:46.257Z,83.28
2023-02-18T03:00:47.194Z,83.59
2023-02-18T03:01:48.042Z,83.69
2023-02-18T03:02:48.949Z,83.90
2023-02-18T03:03:49.822Z,83.80
2023-02-18T03:04:50.706Z,83.59
2023-02-18T03:05:51.570Z,83.28
2023-02-18T03:06:52.453Z,83.69
2023-02-18T03:07:53.336Z,83.84
2023-02-18T03:08:54.258Z,84.05
2023-02-18T03:09:55.130Z,83.94
2023-02-18T03:10:56.014Z,84.25
2023-02-18T03:11:56.886Z,84.67
2023-02-18T03:12:57.788Z,84.88
2023-02-18T03:13:58.650Z,84.88
2023-02-18T03:14:59.542Z,84.56
2023-02-18T03:16:00.439Z,84.77
2023-02-18T03:17:01.310Z,84.77
2023-02-18T03:18:02.211Z,84.56
2023-02-18T03:19:03.086Z,85.02
2023-02-18T03:20:03.960Z,84.98
2023-02-18T03:21:04.843Z,85.19
2023-02-18T03:22:05.726Z,85.39
2023-02-18T03:23:06.608Z,85.43
2023-02-18T03:24:07.521Z,85.19
2023-02-18T03:25:08.385Z,85.50
2023-02-18T03:26:09.784Z,86.02
2023-02-18T03:27:10.262Z,85.71
2023-02-18T03:28:11.136Z,85.81
2023-02-18T03:29:12.020Z,86.12
2023-02-18T03:30:12.970Z,85.91
2023-02-18T03:31:13.865Z,85.71
2023-02-18T03:32:14.708Z,85.60
2023-02-18T03:33:15.586Z,86.02
2023-02-18T03:34:16.467Z,85.71
2023-02-18T03:35:17.358Z,85.81
2023-02-18T03:36:18.246Z,85.60
2023-02-18T03:37:19.169Z,85.19
2023-02-18T03:38:20.066Z,85.19
2023-02-18T03:39:20.966Z,85.19
2023-02-18T03:40:21.858Z,85.39
2023-02-18T03:41:22.759Z,85.29
2023-02-18T03:42:23.635Z,85.39
2023-02-18T03:43:24.554Z,85.50
2023-02-18T03:44:25.437Z,85.39
2023-02-18T03:45:26.382Z,85.29
2023-02-18T03:46:27.249Z,85.50
2023-02-18T03:47:28.137Z,85.91
2023-02-18T03:48:29.005Z,85.81
2023-02-18T03:49:29.910Z,85.71
2023-02-18T03:50:30.786Z,85.91
2023-02-18T03:51:31.666Z,86.02
2023-02-18T03:52:32.565Z,85.95
2023-02-18T03:53:33.448Z,85.71
2023-02-18T03:54:34.334Z,85.85
2023-02-18T03:55:35.208Z,85.85
2023-02-18T03:56:36.085Z,85.74
2023-02-18T03:57:36.961Z,85.64
2023-02-18T03:58:37.865Z,85.95
2023-02-18T03:59:38.732Z,85.95
2023-02-18T04:00:39.608Z,85.74
2023-02-18T04:01:40.508Z,85.95
2023-02-18T04:02:41.370Z,85.85
2023-02-18T04:03:42.246Z,85.85
2023-02-18T04:04:43.139Z,85.64
2023-02-18T04:05:44.022Z,85.53
2023-02-18T04:06:44.919Z,85.43
2023-02-18T04:07:45.797Z,85.88
2023-02-18T04:08:46.683Z,85.99
2023-02-18T04:09:47.568Z,86.19
2023-02-18T04:10:48.451Z,85.88
2023-02-18T04:11:49.337Z,85.99
2023-02-18T04:12:50.224Z,85.99
2023-02-18T04:13:51.122Z,85.36
2023-02-18T04:14:52.001Z,85.16
2023-02-18T04:15:52.882Z,85.88
2023-02-18T04:16:53.768Z,86.51
2023-02-18T04:17:54.639Z,87.13
2023-02-18T04:18:55.508Z,86.93
2023-02-18T04:19:56.399Z,87.45
2023-02-18T04:20:57.270Z,87.65
2023-02-18T04:21:58.171Z,87.34
2023-02-18T04:22:59.044Z,87.03
2023-02-18T04:23:59.925Z,86.30
2023-02-18T04:25:00.844Z,85.05
2023-02-18T04:26:01.736Z,84.43
2023-02-18T04:27:02.639Z,83.81
2023-02-18T04:28:03.540Z,83.70
2023-02-18T04:29:04.457Z,83.74
2023-02-18T04:30:05.434Z,83.74
2023-02-18T04:31:06.434Z,83.53
2023-02-18T04:32:06.879Z,83.53
2023-02-18T04:33:07.745Z,83.78
2023-02-18T04:34:08.615Z,83.99
2023-02-18T04:35:09.510Z,84.41
2023-02-18T04:36:10.655Z,85.34
2023-02-18T04:37:11.152Z,85.44
2023-02-18T04:38:12.088Z,85.24
2023-02-18T04:39:12.921Z,85.13
2023-02-18T04:40:13.834Z,85.24
2023-02-18T04:41:14.707Z,85.06
2023-02-18T04:42:15.584Z,85.38
2023-02-18T04:43:16.468Z,85.49
2023-02-18T04:44:17.388Z,85.69
2023-02-18T04:45:18.244Z,86.21
2023-02-18T04:46:19.178Z,86.42
2023-02-18T04:47:20.035Z,86.73
2023-02-18T04:48:20.939Z,86.73
2023-02-18T04:49:21.807Z,86.73
2023-02-18T04:50:22.712Z,86.52
2023-02-18T04:51:23.610Z,86.21
2023-02-18T04:52:24.491Z,86.25
2023-02-18T04:53:25.409Z,86.46
2023-02-18T04:54:26.276Z,86.77
2023-02-18T04:55:27.193Z,86.98
2023-02-18T04:56:28.074Z,86.77
2023-02-18T04:57:28.956Z,86.98
2023-02-18T04:58:29.835Z,87.08
2023-02-18T04:59:30.724Z,86.98
2023-02-18T05:00:31.598Z,87.08
2023-02-18T05:01:32.579Z,87.29
2023-02-18T05:02:33.451Z,87.08
2023-02-18T05:03:34.335Z,86.98
2023-02-18T05:04:35.248Z,87.08
2023-02-18T05:05:36.126Z,87.40
2023-02-18T05:06:36.999Z,87.71
2023-02-18T05:07:37.883Z,87.81
2023-02-18T05:08:38.764Z,87.81
2023-02-18T05:09:39.654Z,88.33
2023-02-18T05:10:40.553Z,88.12
2023-02-18T05:11:41.422Z,88.43
2023-02-18T05:12:42.316Z,88.37
2023-02-18T05:13:43.200Z,88.68
2023-02-18T05:14:44.109Z,89.00
2023-02-18T05:15:45.000Z,89.00
2023-02-18T05:16:45.892Z,89.31
2023-02-18T05:17:46.750Z,89.62
2023-02-18T05:18:47.626Z,90.35
2023-02-18T05:19:48.513Z,89.62
2023-02-18T05:20:49.424Z,88.68
2023-02-18T05:21:50.292Z,88.17
2023-02-18T05:22:51.171Z,87.85
2023-02-18T05:23:52.057Z,87.75
2023-02-18T05:24:52.949Z,87.85
2023-02-18T05:25:53.830Z,87.75
2023-02-18T05:26:54.718Z,87.33
2023-02-18T05:27:55.605Z,86.91
2023-02-18T05:28:56.483Z,86.60
2023-02-18T05:29:57.417Z,85.98
2023-02-18T05:30:58.274Z,85.77
2023-02-18T05:31:59.227Z,85.71
2023-02-18T05:33:00.083Z,85.81
2023-02-18T05:34:00.954Z,85.91
2023-02-18T05:35:01.818Z,86.12
2023-02-18T05:36:02.732Z,86.22
2023-02-18T05:37:03.600Z,86.27
2023-02-18T05:38:04.478Z,86.27
2023-02-18T05:39:05.383Z,86.37
2023-02-18T05:40:06.257Z,86.79
2023-02-18T05:41:07.219Z,87.10
2023-02-18T05:42:08.070Z,88.14
2023-02-18T05:43:08.950Z,88.66
2023-02-18T05:44:09.835Z,88.98
2023-02-18T05:45:10.761Z,89.08
2023-02-18T05:46:11.792Z,89.29
2023-02-18T05:47:12.173Z,89.50
2023-02-18T05:48:13.046Z,90.22
2023-02-18T05:49:13.945Z,90.33
2023-02-18T05:50:14.806Z,90.54
2023-02-18T05:51:15.758Z,90.75
2023-02-18T05:52:16.616Z,89.45
2023-02-18T05:53:17.779Z,88.42
2023-02-18T05:54:18.128Z,87.73
2023-02-18T05:55:18.992Z,87.41
2023-02-18T05:56:19.885Z,87.30
2023-02-18T05:57:20.695Z,87.30
2023-02-18T05:58:21.585Z,88.04
2023-02-18T05:59:22.419Z,88.56
2023-02-18T06:00:23.265Z,88.24
2023-02-18T06:01:24.135Z,88.14
2023-02-18T06:02:25.044Z,88.66
2023-02-18T06:03:25.821Z,88.76
2023-02-18T06:04:26.662Z,88.98
2023-02-18T06:05:27.568Z,89.18
2023-02-18T06:06:28.383Z,89.39
2023-02-18T06:07:29.210Z,89.50
2023-02-18T06:08:30.082Z,89.50
2023-02-18T06:09:30.870Z,89.70
2023-02-18T06:10:31.705Z,89.70
2023-02-18T06:11:32.558Z,89.39
2023-02-18T06:12:33.373Z,88.76
2023-02-18T06:13:34.205Z,88.45
2023-02-18T06:14:35.034Z,88.45
2023-02-18T06:15:35.885Z,88.60
2023-02-18T06:16:36.713Z,89.22
2023-02-18T06:17:37.576Z,89.43
2023-02-18T06:18:38.369Z,89.32
2023-02-18T06:19:39.195Z,89.32
2023-02-18T06:20:40.035Z,89.22
2023-02-18T06:21:40.867Z,89.32
2023-02-18T06:22:41.698Z,89.43
2023-02-18T06:23:42.574Z,90.06
2023-02-18T06:24:43.377Z,90.26
2023-02-18T06:25:44.217Z,90.58
2023-02-18T06:26:45.050Z,90.58
2023-02-18T06:27:45.867Z,90.58
2023-02-18T06:28:46.700Z,90.47
2023-02-18T06:29:47.532Z,90.16
2023-02-18T06:30:48.381Z,89.85
2023-02-18T06:31:49.276Z,90.26
2023-02-18T06:32:50.077Z,90.79
2023-02-18T06:33:50.901Z,91.41
2023-02-18T06:34:51.737Z,92.14
2023-02-18T06:35:52.583Z,92.46
2023-02-18T06:36:53.402Z,92.87
2023-02-18T06:37:54.223Z,93.08
2023-02-18T06:38:55.059Z,92.97
2023-02-18T06:39:55.870Z,92.25
2023-02-18T06:40:56.746Z,91.83
2023-02-18T06:41:57.550Z,90.79
2023-02-18T06:42:58.381Z,89.75
2023-02-18T06:43:59.241Z,88.81
2023-02-18T06:45:00.037Z,89.54
2023-02-18T06:46:00.895Z,90.47
2023-02-18T06:47:01.704Z,91.56
2023-02-18T06:48:02.537Z,92.18
2023-02-18T06:49:03.362Z,91.97
2023-02-18T06:50:04.190Z,91.35
2023-02-18T06:51:05.027Z,90.31
2023-02-18T06:52:05.891Z,89.89
2023-02-18T06:53:06.708Z,89.47
2023-02-18T06:54:07.531Z,89.06
2023-02-18T06:55:08.366Z,88.85
2023-02-18T06:56:09.560Z,88.64
2023-02-18T06:57:10.037Z,88.53
2023-02-18T06:58:10.850Z,88.75
2023-02-18T06:59:11.681Z,88.43
2023-02-18T07:00:12.512Z,88.53
2023-02-18T07:01:13.428Z,88.43
2023-02-18T07:02:14.243Z,88.53
2023-02-18T07:03:15.030Z,88.53
2023-02-18T07:04:15.862Z,88.78
2023-02-18T07:05:16.690Z,88.95
2023-02-18T07:06:17.522Z,88.99
2023-02-18T07:07:18.356Z,88.99
2023-02-18T07:08:19.185Z,89.20
2023-02-18T07:09:20.014Z,89.37
2023-02-18T07:10:20.877Z,89.16
2023-02-18T07:11:21.696Z,89.06
2023-02-18T07:12:22.520Z,88.85
2023-02-18T07:13:23.359Z,88.85
2023-02-18T07:14:24.188Z,89.26
2023-02-18T07:15:25.034Z,89.26
2023-02-18T07:16:26.005Z,89.37
2023-02-18T07:17:26.794Z,89.47
2023-02-18T07:18:27.624Z,89.16
2023-02-18T07:19:28.440Z,89.26
2023-02-18T07:20:29.274Z,89.37
2023-02-18T07:21:30.105Z,89.37
2023-02-18T07:22:30.929Z,89.47
2023-02-18T07:23:31.760Z,89.37
2023-02-18T07:24:32.588Z,89.06
2023-02-18T07:25:33.416Z,88.91
2023-02-18T07:26:34.262Z,89.01
2023-02-18T07:27:35.120Z,89.32
2023-02-18T07:28:35.936Z,89.43
2023-02-18T07:29:36.752Z,89.32
2023-02-18T07:30:37.607Z,89.32
2023-02-18T07:31:38.515Z,89.29
2023-02-18T07:32:39.351Z,89.08
2023-02-18T07:33:40.203Z,89.14
2023-02-18T07:34:41.052Z,89.76
2023-02-18T07:35:41.850Z,89.73
2023-02-18T07:36:42.691Z,89.58
2023-02-18T07:37:43.519Z,89.33
2023-02-18T07:38:44.348Z,88.94
2023-02-18T07:39:45.183Z,87.90
2023-02-18T07:40:45.995Z,87.59
2023-02-18T07:41:46.845Z,86.76
2023-02-18T07:42:47.672Z,86.44
2023-02-18T07:43:48.500Z,86.13
2023-02-18T07:44:49.334Z,85.61
2023-02-18T07:45:50.242Z,85.10
2023-02-18T07:46:51.056Z,85.20
2023-02-18T07:47:51.864Z,84.89
2023-02-18T07:48:52.686Z,84.92
2023-02-18T07:49:53.513Z,85.20
2023-02-18T07:50:54.341Z,85.44
2023-02-18T07:51:55.177Z,85.55
2023-02-18T07:52:56.009Z,85.75
2023-02-18T07:53:56.846Z,85.86
2023-02-18T07:54:57.673Z,86.17
2023-02-18T07:55:58.496Z,85.96
2023-02-18T07:56:59.326Z,86.07
2023-02-18T07:58:00.166Z,86.07
2023-02-18T07:59:00.985Z,86.17
2023-02-18T08:00:01.814Z,86.49
2023-02-18T08:01:02.637Z,86.86
2023-02-18T08:02:03.607Z,87.07
2023-02-18T08:03:04.385Z,87.07
2023-02-18T08:04:05.288Z,87.48
2023-02-18T08:05:06.085Z,87.38
2023-02-18T08:06:07.240Z,87.13
2023-02-18T08:07:07.720Z,86.82
2023-02-18T08:08:08.541Z,86.82
2023-02-18T08:09:09.377Z,86.88
2023-02-18T08:10:10.211Z,86.88
2023-02-18T08:11:18.941Z,86.43
2023-02-18T08:12:12.748Z,85.66
2023-02-18T08:13:12.576Z,84.11
2023-02-18T08:14:13.404Z,83.76
2023-02-18T08:15:14.223Z,83.86
2023-02-18T08:16:15.215Z,83.31
2023-02-18T08:17:15.589Z,83.99
2023-02-18T08:18:16.394Z,83.75
2023-02-18T08:19:17.214Z,82.50
2023-02-18T08:20:18.048Z,82.05
2023-02-18T08:21:18.875Z,81.91
2023-02-18T08:22:19.715Z,81.15
2023-02-18T08:23:20.557Z,80.74
2023-02-18T08:24:21.365Z,80.08
2023-02-18T08:25:29.372Z,79.94
2023-02-18T08:26:23.912Z,79.11
2023-02-18T08:27:23.728Z,79.32
2023-02-18T08:28:24.562Z,78.66
2023-02-18T08:29:25.393Z,78.25
2023-02-18T08:30:26.449Z,78.11
2023-02-18T08:31:26.985Z,78.90
2023-02-18T08:32:27.442Z,76.21
2023-02-18T08:33:28.200Z,76.21
2023-02-18T08:34:29.031Z,76.29
2023-02-18T08:35:29.865Z,76.70
2023-02-18T08:36:30.678Z,76.35
2023-02-18T08:37:31.519Z,75.29
2023-02-18T08:38:33.245Z,75.29
2023-02-18T08:39:33.053Z,75.15
2023-02-18T08:40:33.881Z,74.33
2023-02-18T08:41:34.704Z,73.78
2023-02-18T08:42:35.693Z,73.36
2023-02-18T08:43:36.481Z,72.61
2023-02-18T08:44:37.309Z,72.89
2023-02-18T08:45:38.159Z,72.58
2023-02-18T08:46:39.027Z,71.14
2023-02-18T08:48:17.284Z,71.62
2023-02-18T08:48:41.642Z,70.49
2023-02-18T08:49:41.401Z,69.87
2023-02-18T08:50:42.232Z,69.98
2023-02-18T08:51:43.042Z,70.79
2023-02-18T08:52:43.884Z,70.59
2023-02-18T08:53:44.704Z,70.83
2023-02-18T08:54:45.537Z,71.34
2023-02-18T08:55:46.397Z,71.34
2023-02-18T08:56:47.196Z,71.14
2023-02-18T08:57:48.032Z,70.62
2023-02-18T08:58:48.856Z,70.94
2023-02-18T08:59:49.675Z,71.34
2023-02-18T09:00:50.504Z,71.66
2023-02-18T09:01:51.331Z,70.32
2023-02-18T09:02:52.206Z,70.94
2023-02-18T09:03:53.052Z,70.94
2023-02-18T09:04:53.847Z,71.24
2023-02-18T09:05:54.667Z,71.14
2023-02-18T09:06:55.496Z,71.34
2023-02-18T09:07:56.324Z,71.04
2023-02-18T09:08:57.169Z,71.04
2023-02-18T09:09:57.982Z,70.42
2023-02-18T09:10:58.803Z,70.21
2023-02-18T09:11:59.622Z,70.73
2023-02-18T09:13:00.463Z,71.34
2023-02-18T09:14:01.280Z,71.75
2023-02-18T09:15:02.118Z,71.04
2023-02-18T09:16:03.000Z,71.66
2023-02-18T09:17:03.774Z,71.45
2023-02-18T09:18:04.635Z,71.24
2023-02-18T09:19:05.448Z,71.14
2023-02-18T09:20:06.262Z,71.86
2023-02-18T09:21:07.525Z,71.45
2023-02-18T09:22:07.980Z,71.55
2023-02-18T09:23:08.820Z,71.86
2023-02-18T09:24:09.642Z,71.45
2023-02-18T09:25:10.477Z,71.41
2023-02-18T09:26:11.286Z,71.41
2023-02-18T09:27:12.123Z,71.11
2023-02-18T09:28:12.957Z,71.31
2023-02-18T09:29:13.785Z,71.83
2023-02-18T09:30:14.676Z,72.24
2023-02-18T09:31:15.594Z,72.65
2023-02-18T09:32:28.827Z,72.75
2023-02-18T09:33:18.190Z,72.13
2023-02-18T09:34:17.975Z,71.93
2023-02-18T09:35:18.804Z,71.83
2023-02-18T09:36:19.623Z,71.83
2023-02-18T09:37:20.454Z,71.72
2023-02-18T09:38:21.298Z,71.38
2023-02-18T09:39:22.135Z,70.87
2023-02-18T09:40:22.954Z,70.97
2023-02-18T09:41:23.782Z,71.48
2023-02-18T09:42:24.618Z,71.48
2023-02-18T09:43:25.452Z,71.17
2023-02-18T09:44:26.282Z,71.08
2023-02-18T09:45:27.112Z,70.87
2023-02-18T09:46:27.951Z,70.97
2023-02-18T09:47:28.783Z,71.28
2023-02-18T09:48:29.652Z,71.55
2023-02-18T09:49:30.439Z,71.45
2023-02-18T09:50:31.257Z,71.45
2023-02-18T09:51:32.085Z,71.55
2023-02-18T09:52:32.907Z,71.04
2023-02-18T09:53:33.775Z,70.70
2023-02-18T09:54:34.586Z,71.21
2023-02-18T09:55:35.420Z,71.01
2023-02-18T09:56:36.236Z,71.52
2023-02-18T09:57:37.062Z,71.93
2023-02-18T09:58:37.909Z,71.18
2023-02-18T09:59:38.755Z,71.08
2023-02-18T10:00:39.573Z,71.08
2023-02-18T10:01:40.440Z,70.67
2023-02-18T10:02:41.255Z,70.94
2023-02-18T10:03:42.121Z,70.73
2023-02-18T10:04:42.914Z,69.61
2023-02-18T10:05:43.758Z,69.71
2023-02-18T10:06:44.562Z,69.71
2023-02-18T10:07:45.392Z,70.09
2023-02-18T10:08:46.250Z,69.98
2023-02-18T10:09:47.050Z,68.96
2023-02-18T10:10:47.878Z,69.17
2023-02-18T10:11:48.705Z,69.06
2023-02-18T10:12:49.545Z,69.06
2023-02-18T10:13:50.362Z,69.17
2023-02-18T10:14:51.187Z,69.37
2023-02-18T10:15:52.088Z,68.96
2023-02-18T10:16:52.887Z,68.86
2023-02-18T10:17:53.708Z,69.78
2023-02-18T10:18:54.568Z,70.47
2023-02-18T10:19:55.388Z,70.47
2023-02-18T10:20:56.204Z,70.57
2023-02-18T10:21:57.045Z,70.57
2023-02-18T10:22:57.862Z,70.47
2023-02-18T10:23:58.705Z,69.92
2023-02-18T10:24:59.527Z,69.61
2023-02-18T10:26:00.368Z,69.61
2023-02-18T10:27:01.186Z,69.89
2023-02-18T10:28:02.023Z,69.99
2023-02-18T10:29:02.841Z,69.99
2023-02-18T10:30:03.747Z,69.14
2023-02-18T10:31:04.591Z,68.73
2023-02-18T10:32:05.424Z,68.42
2023-02-18T10:33:06.220Z,68.32
2023-02-18T10:34:07.090Z,67.81
2023-02-18T10:35:07.889Z,67.81
2023-02-18T10:36:08.713Z,67.81
2023-02-18T10:37:09.525Z,67.91
2023-02-18T10:38:10.378Z,68.01
2023-02-18T10:39:11.193Z,68.42
2023-02-18T10:40:12.017Z,67.91
2023-02-18T10:41:12.836Z,67.91
2023-02-18T10:42:13.673Z,68.12
2023-02-18T10:43:14.486Z,68.01
2023-02-18T10:44:15.337Z,68.42
2023-02-18T10:45:16.147Z,68.49
2023-02-18T10:46:17.005Z,67.88
2023-02-18T10:47:17.801Z,68.08
2023-02-18T10:48:18.632Z,67.78
2023-02-18T10:49:19.483Z,67.57
2023-02-18T10:50:20.294Z,66.75
2023-02-18T10:51:21.111Z,66.96
2023-02-18T10:52:21.932Z,67.07
2023-02-18T10:53:22.759Z,67.37
2023-02-18T10:54:23.589Z,66.72
2023-02-18T10:55:24.417Z,63.66
2023-02-18T10:56:25.320Z,65.30
2023-02-18T10:57:26.108Z,64.99
2023-02-18T10:58:26.940Z,65.19
2023-02-18T10:59:27.776Z,65.70
2023-02-18T11:00:28.595Z,65.67
2023-02-18T11:01:29.512Z,63.73
2023-02-18T11:02:30.301Z,62.51
2023-02-18T11:03:31.131Z,61.38
2023-02-18T11:04:32.024Z,62.68
2023-02-18T11:05:32.805Z,64.31
2023-02-18T11:06:33.634Z,64.62
2023-02-18T11:07:34.455Z,64.83
2023-02-18T11:08:35.273Z,62.85
2023-02-18T11:09:36.122Z,60.51
2023-02-18T11:10:36.944Z,59.80
2023-02-18T11:11:37.779Z,58.16
2023-02-18T11:12:38.596Z,57.01
2023-02-18T11:13:39.421Z,56.20
2023-02-18T11:14:40.261Z,56.07
2023-02-18T11:15:41.094Z,56.88
2023-02-18T11:16:41.924Z,57.19
2023-02-18T11:17:42.742Z,54.21
2023-02-18T11:18:43.567Z,52.15
2023-02-18T11:19:44.524Z,51.72
2023-02-18T11:20:45.278Z,50.16
2023-02-18T11:21:46.104Z,49.76
2023-02-18T11:22:46.935Z,50.14
2023-02-18T11:23:47.754Z,50.01
2023-02-18T11:24:48.733Z,50.12
2023-02-18T11:25:49.527Z,48.08
2023-02-18T11:26:50.359Z,48.16
2023-02-18T11:27:51.191Z,45.42
2023-02-18T11:28:52.036Z,46.82
2023-02-18T11:29:52.864Z,46.31
2023-02-18T11:30:53.687Z,45.29
2023-02-18T11:31:54.598Z,44.97
2023-02-18T11:32:55.379Z,44.46
2023-02-18T11:33:56.198Z,44.77
2023-02-18T11:34:57.066Z,45.48
2023-02-18T11:35:57.875Z,44.24
2023-02-18T11:36:58.702Z,44.34
2023-02-18T11:37:59.541Z,44.85
2023-02-18T11:39:00.362Z,44.85
2023-02-18T11:40:01.201Z,44.74
2023-02-18T11:41:02.040Z,43.12
2023-02-18T11:42:02.853Z,44.01
2023-02-18T11:43:03.681Z,42.80
2023-02-18T11:44:04.512Z,42.69
2023-02-18T11:45:05.837Z,43.71
2023-02-18T11:46:06.122Z,42.49
2023-02-18T11:47:06.963Z,41.99
2023-02-18T11:48:07.784Z,42.60
2023-02-18T11:49:08.663Z,42.47
2023-02-18T11:50:09.517Z,42.78
2023-02-18T11:51:10.729Z,42.98
2023-02-18T11:52:11.154Z,41.86
2023-02-18T11:53:11.973Z,41.46
2023-02-18T11:54:12.801Z,41.86
2023-02-18T11:55:13.632Z,41.26
2023-02-18T11:56:14.463Z,40.85
2023-02-18T11:57:15.280Z,41.34
2023-02-18T11:58:16.141Z,41.44
2023-02-18T11:59:16.937Z,42.15
2023-02-18T12:00:17.776Z,42.15
2023-02-18T12:01:18.607Z,41.85
2023-02-18T12:02:19.463Z,42.15
2023-02-18T12:03:20.263Z,41.64
2023-02-18T12:04:21.097Z,42.55
2023-02-18T12:05:22.032Z,41.85
2023-02-18T12:06:22.836Z,42.15
2023-02-18T12:07:23.658Z,40.91
2023-02-18T12:08:24.486Z,40.51
2023-02-18T12:09:25.041Z,41.32
2023-02-18T12:10:25.879Z,41.42
2023-02-18T12:11:26.709Z,42.74
2023-02-18T12:12:27.552Z,41.63
2023-02-18T12:13:28.378Z,40.71
2023-02-18T12:14:29.191Z,41.83
2023-02-18T12:15:30.123Z,40.31
2023-02-18T12:16:31.000Z,41.22
2023-02-18T12:17:31.478Z,40.91
2023-02-18T12:18:32.348Z,40.61
2023-02-18T12:19:33.158Z,40.71
2023-02-18T12:20:34.012Z,40.61
2023-02-18T12:21:34.815Z,41.22
2023-02-18T12:22:35.644Z,41.09
2023-02-18T12:23:36.464Z,41.09
2023-02-18T12:24:37.294Z,40.20
2023-02-18T12:25:38.121Z,40.69
2023-02-18T12:26:38.970Z,40.81
2023-02-18T12:27:39.781Z,39.78
2023-02-18T12:28:40.611Z,40.19
2023-02-18T12:29:41.430Z,40.69
2023-02-18T12:30:42.275Z,40.80
2023-02-18T12:31:43.169Z,40.69
2023-02-18T12:32:44.006Z,40.29
2023-02-18T12:33:44.811Z,39.78
2023-02-18T12:34:45.634Z,38.97
2023-02-18T12:35:46.493Z,39.98
2023-02-18T12:36:47.300Z,39.98
2023-02-18T12:37:48.123Z,39.78
2023-02-18T12:38:48.966Z,39.17
2023-02-18T12:39:49.781Z,39.78
2023-02-18T12:40:50.616Z,39.58
2023-02-18T12:41:51.438Z,39.88
2023-02-18T12:42:52.304Z,39.78
2023-02-18T12:43:53.117Z,39.17
2023-02-18T12:44:53.938Z,38.16
2023-02-18T12:45:54.810Z,38.57
2023-02-18T12:46:55.661Z,38.57
2023-02-18T12:47:56.452Z,38.06
2023-02-18T12:48:57.281Z,38.16
2023-02-18T12:49:58.123Z,37.86
2023-02-18T12:50:58.969Z,38.97
2023-02-18T12:51:59.780Z,38.06
2023-02-18T12:53:00.613Z,37.55
2023-02-18T12:54:01.446Z,37.45
2023-02-18T12:55:02.271Z,37.45
2023-02-18T12:56:03.097Z,37.65
2023-02-18T12:57:03.948Z,37.65
2023-02-18T12:58:04.744Z,37.15
2023-02-18T12:59:05.573Z,37.25
2023-02-18T13:00:06.422Z,36.94
2023-02-18T13:01:07.274Z,37.35
2023-02-18T13:02:08.062Z,37.35
2023-02-18T13:03:08.928Z,37.25